Latest Coastal Weather Observations for Double Island Point

IDQ60701

Issued at 12:42 am EST Wednesday 23 August 2017 (issued every 10 minutes, with the page automatically refreshed every 10 minutes)

About coastal observations | Map of coastal stations | Coastal observations for QLD | Marine services | Other Formats
Station Details ID: 040068 Name: DOUBLE ISLAND POINT LIGHTHOUSE Lat: -25.93 Lon: 153.19 Height: 95.64 m
Data from the previous 72 hours. | See also: Recent months at Double Island Point
Date/Time
EST
Temp
°C
Wind Pressure Rain since
9am
mm
Weather Cloud Vis
km
Sea
Height
m
Swell
Dir  Spd
kts
Gust
kts
hPa Trend Height
m
Period
s
Dir
23/12:30am 19.0 N 6 12 1019.4 - 0.0 - - - - - - -
23/12:00am 19.1 N 6 9 1019.5 - 0.0 - - - - - - -
 
Date/Time
EST
Temp
°C
Wind Pressure Rain since
9am
mm
Weather Cloud Vis
km
Sea
Height
m
Swell
Dir  Spd
kts
Gust
kts
hPa Trend Height
m
Period
s
Dir
22/11:30pm 19.0 N 7 12 1019.6 - 0.0 - - - - - - -
22/11:00pm 19.1 N 5 8 1019.7 - 0.0 - - - - - - -
22/10:30pm 18.9 N 7 10 1019.6 - 0.0 - - - - - - -
22/10:00pm 19.1 N 6 9 1019.7 - 0.0 - - - - - - -
22/09:30pm 18.9 N 9 14 1019.6 - 0.0 - - - - - - -
22/09:00pm 18.9 N 10 15 1019.5 - 0.0 - - - - - - -
22/08:30pm 19.2 N 11 16 1019.2 - 0.0 - - - - - - -
22/08:00pm 19.3 N 11 17 1019.0 - 0.0 - - - - - - -
22/07:30pm 19.4 N 11 16 1018.7 - 0.0 - - - - - - -
22/07:00pm 19.3 N 10 15 1018.4 - 0.0 - - - - - - -
22/06:30pm 20.3 N 9 16 1018.0 - 0.0 - - - - - - -
22/06:00pm 20.3 NNE 14 24 1017.5 - 0.0 - - - - - - -
22/05:30pm 20.3 NNE 20 25 1017.2 - 0.0 - - - - - - -
22/05:00pm 20.8 NNE 21 25 1016.8 - 0.0 - - - - - - -
22/04:30pm 21.6 NNE 21 25 1016.6 - 0.0 - - - - - - -
22/04:00pm 22.3 NE 17 22 1016.6 - 0.0 - - - - - - -
22/03:30pm 23.1 NE 15 21 1016.6 - 0.0 - - - - - - -
22/03:00pm 23.0 NNE 18 21 1016.5 - 0.0 - - - - - - -
22/02:30pm 24.0 NE 16 19 1016.5 - 0.0 - - - - - - -
22/02:00pm 23.7 NNE 16 19 1016.8 - 0.0 - - - - - - -
22/01:30pm 23.7 NNE 14 18 1017.0 - 0.0 - - - - - - -
22/01:00pm 24.2 N 6 10 1017.4 - 0.0 - - - - - - -
22/12:30pm 24.7 N 6 11 1017.9 - 0.0 - - - - - - -
22/12:00pm 25.2 N 4 5 1018.4 - 0.0 - - - - - - -
22/11:30am 25.0 N 8 13 1019.1 - 0.0 - - - - - - -
22/11:00am 24.5 N 7 12 1019.7 - 0.0 - - - - - - -
22/10:30am 23.9 N 5 9 1019.9 - 0.0 - - - - - - -
22/10:00am 22.5 N 8 11 1020.1 - 0.0 - - - - - - -
22/09:30am 21.7 N 9 12 1020.2 - 0.0 - - - - - - -
22/09:00am 20.6 N 8 12 1020.3 - 0.0 - - - - - - -
22/08:30am 20.0 NNW 9 11 1020.3 - 0.0 - - - - - - -
22/08:00am 18.8 NNW 10 12 1020.2 - 0.0 - - - - - - -
22/07:30am 19.8 N 5 9 1020.0 - 0.0 - - - - - - -
22/07:00am 18.8 N 5 9 1019.7 - 0.0 - - - - - - -
22/06:30am 18.2 N 5 8 1019.3 - 0.0 - - - - - - -
22/06:00am 18.3 N 3 6 1019.0 - 0.0 - - - - - - -
22/05:30am 17.8 NNE 4 6 1018.9 - 0.0 - - - - - - -
22/05:00am 17.7 N 5 8 1018.9 - 0.0 - - - - - - -
22/04:30am 17.4 N 5 9 1018.7 - 0.0 - - - - - - -
22/04:00am 17.2 SW 5 7 1018.6 - 0.0 - - - - - - -
22/03:30am 17.1 N 6 8 1018.5 - 0.0 - - - - - - -
22/03:00am 17.0 NNW 9 10 1018.6 - 0.0 - - - - - - -
22/02:30am 17.1 NNW 8 10 1018.7 - 0.0 - - - - - - -
22/02:00am 17.1 NNW 9 10 1018.8 - 0.0 - - - - - - -
22/01:30am 17.3 NNW 9 10 1019.0 - 0.0 - - - - - - -
22/01:00am 17.3 NNW 9 11 1019.2 - 0.0 - - - - - - -
22/12:30am 17.9 NNW 11 13 1019.1 - 0.0 - - - - - - -
22/12:00am 18.4 NNE 11 17 1019.2 - 0.0 - - - - - - -
 
Date/Time
EST
Temp
°C
Wind Pressure Rain since
9am
mm
Weather Cloud Vis
km
Sea
Height
m
Swell
Dir  Spd
kts
Gust
kts
hPa Trend Height
m
Period
s
Dir
21/11:30pm 18.6 NNE 11 17 1019.0 - 0.0 - - - - - - -
21/11:00pm 18.3 NNE 13 18 1019.1 - 0.0 - - - - - - -
21/10:30pm 18.2 NNE 13 17 1019.1 - 0.0 - - - - - - -
21/10:00pm 18.0 NNE 12 16 1019.1 - 0.0 - - - - - - -
21/09:30pm 17.9 NE 11 19 1019.1 - 0.0 - - - - - - -
21/09:00pm 17.8 NE 12 16 1019.1 - 0.0 - - - - - - -
21/08:30pm 17.9 NE 12 18 1018.9 - 0.0 - - - - - - -
21/08:00pm 18.0 NNE 13 16 1018.9 - 0.0 - - - - - - -
21/07:30pm 18.0 NE 13 17 1018.8 - 0.0 - - - - - - -
21/07:00pm 17.7 NE 12 16 1018.6 - 0.0 - - - - - - -
21/06:30pm 17.6 NNE 9 12 1018.6 - 0.0 - - - - - - -
21/06:00pm 17.8 NE 9 12 1018.5 - 0.0 - - - - - - -
21/05:30pm 17.8 ENE 5 9 1018.7 - 0.0 - - - - - - -
21/05:00pm 18.4 E 6 9 1018.7 - 0.0 - - - - - - -
21/04:30pm 18.7 E 6 8 1018.5 - 0.0 - - - - - - -
21/04:00pm 18.2 E 8 9 1018.7 - 0.0 - - - - - - -
21/03:30pm 18.2 SE 8 10 1018.7 - 0.0 - - - - - - -
21/03:00pm 18.5 SSE 10 12 1018.7 - 0.0 - - - - - - -
21/02:30pm 18.3 SSE 9 11 1018.8 - 0.0 - - - - - - -
21/02:00pm 18.4 S 9 13 1019.1 - 0.0 - - - - - - -
21/01:30pm 18.3 SSE 10 14 1019.3 - 0.0 - - - - - - -
21/01:00pm 18.4 S 12 15 1019.5 - 0.0 - - - - - - -
21/12:30pm 18.0 S 14 19 1019.9 - 0.0 - - - - - - -
21/12:00pm 18.2 S 13 18 1020.3 - 0.0 - - - - - - -
21/11:30am 17.6 SSE 17 22 1020.5 - 0.0 - - - - - - -
21/11:00am 17.7 S 18 23 1020.8 - 0.0 - - - - - - -
21/10:30am 16.7 S 16 20 1021.1 - 0.0 - - - - - - -
21/10:00am 17.0 S 17 22 1021.2 - 0.0 - - - - - - -
21/09:30am 16.4 S 18 22 1021.1 - 0.0 - - - - - - -
21/09:00am 16.1 S 16 20 1021.0 - 0.0 - - - - - - -
21/08:30am 16.0 S 20 24 1020.7 - 0.0 - - - - - - -
21/08:00am 16.1 S 15 21 1020.7 - 0.0 - - - - - - -
21/07:30am 15.3 S 16 21 1020.7 - 0.0 - - - - - - -
21/07:00am 15.1 SSW 15 18 1020.2 - 0.0 - - - - - - -
21/06:30am 15.7 S 15 18 1019.8 - 0.0 - - - - - - -
21/06:00am 15.2 SSW 13 20 1019.4 - 0.0 - - - - - - -
21/05:30am 16.3 SE 19 24 1018.6 - 0.0 - - - - - - -
21/05:12am 16.6 SSE 15 26 1018.3 - 0.0 - - - - - - -
21/05:00am 16.4 SSE 15 22 1018.5 - 0.0 - - - - - - -
21/04:30am 16.3 S 17 21 1017.9 - 0.0 - - - - - - -
21/04:00am 15.9 S 17 20 1017.8 - 0.0 - - - - - - -
21/03:30am 15.7 S 16 20 1018.2 - 0.0 - - - - - - -
21/03:00am 15.6 SSW 15 19 1018.3 - 0.0 - - - - - - -
21/02:30am 14.9 SSW 15 19 1018.5 - 0.0 - - - - - - -
21/02:00am 15.4 SSW 14 18 1018.8 - 0.0 - - - - - - -
21/01:30am 15.3 SSW 16 19 1019.0 - 0.0 - - - - - - -
21/01:00am 15.2 SSW 13 17 1019.1 - 0.0 - - - - - - -
21/12:30am 14.8 SSW 13 15 1019.2 - 0.0 - - - - - - -
21/12:00am 15.2 SSW 12 14 1019.5 - 0.0 - - - - - - -
 
Date/Time
EST
Temp
°C
Wind Pressure Rain since
9am
mm
Weather Cloud Vis
km
Sea
Height
m
Swell
Dir  Spd
kts
Gust
kts
hPa Trend Height
m
Period
s
Dir
20/11:30pm 15.4 SSW 12 15 1019.6 - 0.0 - - - - - - -
20/11:00pm 15.7 SSW 12 15 1019.6 - 0.0 - - - - - - -
20/10:30pm 16.3 S 12 16 1019.8 - 0.0 - - - - - - -
20/10:00pm 17.3 S 13 18 1019.8 - 0.0 - - - - - - -
20/09:30pm 17.4 SSE 14 17 1019.8 - 0.0 - - - - - - -
20/09:00pm 17.5 SSE 16 20 1019.8 - 0.0 - - - - - - -
20/08:30pm 17.6 SSE 21 25 1019.7 - 0.0 - - - - - - -
20/08:00pm 17.4 SSE 21 25 1019.6 - 0.0 - - - - - - -
20/07:30pm 17.2 SSE 20 24 1019.3 - 0.0 - - - - - - -
20/07:00pm 17.0 SSE 20 24 1019.0 - 0.0 - - - - - - -
20/06:30pm 16.8 SE 21 25 1018.5 - 0.0 - - - - - - -
20/06:00pm 16.6 SE 20 23 1018.4 - 0.0 - - - - - - -
20/05:30pm 16.3 SSE 21 25 1018.3 - 0.0 - - - - - - -
20/05:00pm 16.2 SSE 25 29 1017.9 - 0.0 - - - - - - -
20/04:30pm 16.3 SSE 21 25 1017.8 - 0.0 - - - - - - -
20/04:00pm 16.5 SSE 20 25 1017.6 - 0.0 - - - - - - -
20/03:30pm 16.7 SSE 19 22 1017.5 - 0.0 - - - - - - -
20/03:00pm 16.6 SSE 19 23 1017.6 - 0.0 - - - - - - -
20/02:30pm 16.6 SSE 19 23 1017.6 - 0.0 - - - - - - -
20/02:00pm 16.5 SSE 20 25 1017.6 - 0.0 - - - - - - -
20/01:30pm 16.5 SSE 22 27 1017.6 - 0.0 - - - - - - -
20/01:00pm 16.5 S 22 29 1017.8 - 0.0 - - - - - - -
20/12:30pm 16.0 S 22 27 1018.2 - 0.0 - - - - - - -
20/12:00pm 16.1 S 21 27 1018.6 - 0.0 - - - - - - -
20/11:30am 16.0 S 20 27 1019.0 - 0.0 - - - - - - -
20/11:00am 15.9 S 23 29 1019.3 - 0.0 - - - - - - -
20/10:30am 15.9 S 23 30 1019.3 - 0.0 - - - - - - -
20/10:00am 15.6 S 23 31 1019.4 - 0.0 - - - - - - -
20/09:30am 15.6 S 22 29 1019.5 - 0.0 - - - - - - -
20/09:00am 14.8 S 23 29 1019.3 - 0.0 - - - - - - -
20/08:30am 14.3 S 25 31 1019.0 - 0.0 - - - - - - -
20/08:00am 14.1 S 24 31 1018.7 - 0.0 - - - - - - -
20/07:30am 14.1 S 25 31 1018.4 - 0.0 - - - - - - -
20/07:00am 13.7 S 24 32 1018.0 - 0.0 - - - - - - -
20/06:30am 12.5 SSW 17 27 1017.8 - 0.0 - - - - - - -
20/06:24am 12.5 SSW 17 27 1017.8 - 0.0 - - - - - - -
20/06:00am 12.7 SSW 22 29 1017.3 - 0.0 - - - - - - -
20/05:30am 12.7 SSW 21 27 1016.9 - 0.0 - - - - - - -
20/05:00am 12.6 SSW 21 27 1016.6 - 0.0 - - - - - - -
20/04:30am 12.3 SSW 21 27 1016.3 - 0.0 - - - - - - -
20/04:00am 12.2 SSW 22 27 1016.1 - 0.0 - - - - - - -
20/03:30am 12.3 SSW 22 27 1016.0 - 0.0 - - - - - - -
20/03:00am 12.8 SW 23 30 1015.9 - 0.0 - - - - - - -
20/02:47am 12.6 SW 21 31 1016.1 - 0.0 - - - - - - -
20/02:30am 12.4 SW 22 29 1016.1 - 0.0 - - - - - - -
20/02:00am 12.3 SW 19 27 1016.5 - 0.0 - - - - - - -
20/01:30am 12.6 SW 20 30 1016.5 - 0.0 - - - - - - -
20/01:27am 12.5 SW 19 30 1016.6 - 0.0 - - - - - - -
20/01:00am 12.5 SW 18 26 1016.9 - 0.0 - - - - - - -

Other Formats:

Comma delimited format used in spreadsheet applications
http://www.bom.gov.au/fwo/IDQ60701/IDQ60701.94584.axf

JavaScript Object Notation format (JSON) in row-major order
http://www.bom.gov.au/fwo/IDQ60701/IDQ60701.94584.json